Metaltrade 3 — YP0431 — position and weather

sailwx.info

Track history (hours):
 
Tides and Currents Weather Stations Pressure Air Temp Water Temp Dewpoint Dewpoint Depression Visibility Wind Speed Wind Dir Waves Ship Positions

Metaltrade 3

Last reported at 2017-Dec-11 10:51 UTC. Time now 2017-Dec-16 19:04 UTC.
Position N 44°18' E 028°03'.

Length 95 m; draft 1.3 m.

Type: Ship. MMSI: 264160431.

Date/timePositionNaut miles runAvg speedWind from/ knotsBaromVisibWave heightAir tempDewpointWater temp
2017-Dec-11 10:51N 44°18' E 028°03'2 5.3
2017-Dec-11 10:30N 44°17' E 028°05'3 5.5
2017-Dec-11 10:00N 44°16' E 028°08'3 5.7
2017-Dec-11 09:31N 44°16' E 028°12'3 5.7
2017-Dec-11 09:00N 44°15' E 028°16'3 5.7
2017-Dec-11 08:30N 44°15' E 028°20'3 5.6
2017-Dec-11 08:01N 44°13' E 028°23'3 5.5
2017-Dec-11 07:31N 44°11' E 028°24'7 5.1
2017-Dec-11 06:13N 44°06' E 028°31'1 5.6
2017-Dec-11 06:00N 44°06' E 028°32'3 5.6
2017-Dec-11 05:31N 44°06' E 028°36'1 1.2
2017-Dec-11 05:00N 44°06' E 028°37'1 2.2
2017-Dec-11 04:31N 44°06' E 028°39'1 2.5
2017-Dec-11 04:00N 44°07' E 028°39'0 0.0
2017-Dec-11 03:30N 44°07' E 028°39'0 0.0
2017-Dec-11 03:00N 44°07' E 028°39'0 0.0
2017-Dec-11 02:30N 44°07' E 028°39'0 0.0
2017-Dec-11 02:00N 44°07' E 028°39'0 0.0
2017-Dec-11 01:30N 44°07' E 028°39'0 0.0
2017-Dec-11 01:00N 44°07' E 028°39'0 0.0
2017-Dec-11 00:30N 44°07' E 028°39'0 0.0
2017-Dec-11 00:00N 44°07' E 028°39'0 0.0
2017-Dec-10 23:30N 44°07' E 028°39'0 0.0
2017-Dec-10 23:00N 44°07' E 028°39'0 0.0
2017-Dec-10 22:30N 44°07' E 028°39'0 0.0
2017-Dec-10 22:00N 44°07' E 028°39'0 0.0
2017-Dec-10 21:30N 44°07' E 028°39'0 0.0
2017-Dec-10 21:00N 44°07' E 028°39'0 0.0
2017-Dec-10 20:30N 44°07' E 028°39'0 0.0
2017-Dec-10 20:00N 44°07' E 028°39'0 0.0
2017-Dec-10 19:30N 44°07' E 028°39'0 0.0
2017-Dec-10 19:00N 44°07' E 028°39'0 0.0
2017-Dec-10 18:30N 44°07' E 028°39'0 0.0
2017-Dec-10 18:00N 44°07' E 028°39'0 0.0
2017-Dec-10 17:30N 44°07' E 028°39'0 0.0
2017-Dec-10 17:00N 44°07' E 028°39'0 0.0
2017-Dec-10 16:30N 44°07' E 028°39'0 0.0
2017-Dec-10 16:00N 44°07' E 028°39'0 0.0
2017-Dec-10 15:30N 44°07' E 028°39'0 0.0
2017-Dec-10 15:00N 44°07' E 028°39'0 0.0
2017-Dec-10 14:30N 44°07' E 028°39'0 0.0
2017-Dec-10 14:00N 44°07' E 028°39'0 0.0
2017-Dec-10 13:30N 44°07' E 028°39'0 0.0
2017-Dec-10 13:00N 44°07' E 028°39'0 0.0
2017-Dec-10 12:30N 44°07' E 028°39'0 0.0
2017-Dec-10 12:00N 44°07' E 028°39'0 0.0
2017-Dec-10 11:30N 44°07' E 028°39'0 0.0
2017-Dec-10 11:00N 44°07' E 028°39'0 0.0
2017-Dec-10 10:30N 44°07' E 028°39'0 0.0
2017-Dec-10 10:00N 44°07' E 028°39'0 0.0
2017-Dec-10 09:30N 44°07' E 028°39'0 0.0
2017-Dec-10 09:00N 44°07' E 028°39'0 0.0
2017-Dec-10 08:30N 44°07' E 028°39'0 0.0
2017-Dec-10 08:00N 44°07' E 028°39'0 0.0
2017-Dec-10 07:30N 44°07' E 028°39'0 0.0
2017-Dec-10 07:00N 44°07' E 028°39'0 0.0
2017-Dec-10 06:30N 44°07' E 028°39'0 0.0
2017-Dec-10 06:00N 44°07' E 028°39'0 0.0
2017-Dec-10 05:30N 44°07' E 028°39'0 0.1
2017-Dec-10 05:00N 44°08' E 028°39'1 2.6
2017-Dec-10 04:31N 44°09' E 028°40'1 1.2
2017-Dec-10 04:00N 44°09' E 028°39'0 0.0
2017-Dec-10 03:30N 44°09' E 028°39'0 0.0
2017-Dec-10 03:00N 44°09' E 028°39'0 0.0
2017-Dec-10 02:30N 44°09' E 028°39'0 0.0
2017-Dec-10 01:57N 44°09' E 028°39'0 0.0
2017-Dec-10 01:27N 44°09' E 028°39'0 0.0
2017-Dec-10 01:00N 44°09' E 028°39'0 0.0
2017-Dec-10 00:27N 44°09' E 028°39'0 0.0
2017-Dec-10 00:00N 44°09' E 028°39'0 0.0
2017-Dec-09 23:30N 44°09' E 028°39'0 0.0
2017-Dec-09 23:00N 44°09' E 028°39'0 0.0
2017-Dec-09 22:27N 44°09' E 028°39'0 0.0
2017-Dec-09 22:00N 44°09' E 028°39'0 0.0
2017-Dec-09 21:30N 44°09' E 028°39'0 0.0
2017-Dec-09 21:00N 44°09' E 028°39'0 0.0
2017-Dec-09 20:30N 44°09' E 028°39'0 0.0
2017-Dec-09 20:00N 44°09' E 028°39'0 0.0
2017-Dec-09 19:30N 44°09' E 028°39'0 0.0
2017-Dec-09 18:57N 44°09' E 028°39'0 0.0
2017-Dec-09 18:30N 44°09' E 028°39'0 0.0
2017-Dec-09 18:00N 44°09' E 028°39'0 0.0
2017-Dec-09 17:25N 44°09' E 028°39'0 0.0
2017-Dec-09 16:55N 44°09' E 028°39'0 0.0
2017-Dec-09 16:25N 44°09' E 028°39'0 0.0
2017-Dec-09 15:58N 44°09' E 028°39'0 0.1
2017-Dec-09 15:28N 44°09' E 028°39'0 0.0
2017-Dec-09 14:58N 44°09' E 028°39'0 0.0
2017-Dec-09 14:28N 44°09' E 028°39'0 0.0
2017-Dec-09 13:58N 44°09' E 028°39'0 0.0
2017-Dec-09 13:28N 44°09' E 028°39'0 0.0
2017-Dec-09 12:58N 44°09' E 028°39'0 0.0
2017-Dec-09 12:28N 44°09' E 028°39'0 0.0
2017-Dec-09 11:58N 44°09' E 028°39'0 0.0
2017-Dec-09 11:28N 44°09' E 028°39'0 0.0
2017-Dec-09 10:58N 44°09' E 028°39'0 0.0
2017-Dec-09 10:28N 44°09' E 028°39'0 0.1
2017-Dec-09 09:55N 44°09' E 028°39'0 0.0
2017-Dec-09 09:28N 44°09' E 028°39'0 0.0
2017-Dec-09 08:58N 44°09' E 028°39'0 0.0
2017-Dec-09 08:28N 44°09' E 028°39'0 0.0
2017-Dec-09 07:58N 44°09' E 028°39'1 1.5
2017-Dec-09 07:30N 44°09' E 028°40'2 4.4
2017-Dec-09 07:00N 44°07' E 028°39'0 0.3
2017-Dec-09 06:30N 44°07' E 028°39'0 0.0
2017-Dec-09 05:57N 44°07' E 028°39'0 0.0
2017-Dec-09 05:30N 44°07' E 028°39'0 0.0
2017-Dec-09 05:00N 44°07' E 028°39'0 0.0
2017-Dec-09 04:30N 44°07' E 028°39'0 0.0
2017-Dec-09 04:00N 44°07' E 028°39'0 0.0
2017-Dec-09 03:30N 44°07' E 028°39'0 0.0
2017-Dec-09 03:00N 44°07' E 028°39'0 0.0
2017-Dec-09 02:30N 44°07' E 028°39'0 0.0
2017-Dec-09 02:00N 44°07' E 028°39'0 0.0
2017-Dec-09 01:30N 44°07' E 028°39'0 0.0
2017-Dec-09 01:00N 44°07' E 028°39'0 0.0
2017-Dec-09 00:30N 44°07' E 028°39'0 0.0
2017-Dec-09 00:00N 44°07' E 028°39'0 0.0
2017-Dec-08 23:27N 44°07' E 028°39'0 0.0
2017-Dec-08 23:00N 44°07' E 028°39'0 0.0
2017-Dec-08 22:30N 44°07' E 028°39'0 0.0
2017-Dec-08 22:00N 44°07' E 028°39'0 0.0
2017-Dec-08 21:30N 44°07' E 028°39'0 0.0
2017-Dec-08 21:00N 44°07' E 028°39'0 0.0
2017-Dec-08 20:30N 44°07' E 028°39'0 0.0
2017-Dec-08 20:00N 44°07' E 028°39'0 0.0
2017-Dec-08 19:30N 44°07' E 028°39'0 0.0
2017-Dec-08 19:00N 44°07' E 028°39'0 0.0
2017-Dec-08 18:30N 44°07' E 028°39'0 0.0
2017-Dec-08 18:00N 44°07' E 028°39'0 0.0
2017-Dec-08 17:30N 44°07' E 028°39'0 0.0
2017-Dec-08 16:54N 44°07' E 028°39'0 0.0
2017-Dec-08 16:30N 44°07' E 028°39'0 0.0
2017-Dec-08 16:00N 44°07' E 028°39'0 0.0
2017-Dec-08 15:30N 44°07' E 028°39'0 0.0
2017-Dec-08 15:00N 44°07' E 028°39'0 0.0
2017-Dec-08 14:30N 44°07' E 028°39'0 0.0
2017-Dec-08 14:00N 44°07' E 028°39'0 0.0
2017-Dec-08 13:30N 44°07' E 028°39'0 0.0
2017-Dec-08 13:00N 44°07' E 028°39'0 0.0
2017-Dec-08 12:30N 44°07' E 028°39'0 0.0
2017-Dec-08 12:00N 44°07' E 028°39'0 0.0
2017-Dec-08 11:30N 44°07' E 028°39'0 0.0
2017-Dec-08 11:00N 44°07' E 028°39'0 0.0
2017-Dec-08 10:30N 44°07' E 028°39'0 0.0
2017-Dec-08 10:00N 44°07' E 028°39'0 0.0
2017-Dec-08 09:30N 44°07' E 028°39'0 0.0
2017-Dec-08 09:00N 44°07' E 028°39'0 0.0
2017-Dec-08 08:30N 44°07' E 028°39'0 0.0
2017-Dec-08 08:00N 44°07' E 028°39'0 0.0
2017-Dec-08 07:30N 44°07' E 028°39'0 0.0
2017-Dec-08 07:00N 44°07' E 028°39'0 0.0
2017-Dec-08 06:30N 44°07' E 028°39'0 0.0
2017-Dec-08 06:00N 44°07' E 028°39'0 0.0
2017-Dec-08 05:30N 44°07' E 028°39'0 0.0
2017-Dec-08 05:00N 44°07' E 028°39'0 0.0
2017-Dec-08 04:30N 44°07' E 028°39'0 0.0
2017-Dec-08 04:00N 44°07' E 028°39'0 0.0
2017-Dec-08 03:30N 44°07' E 028°39'0 0.0
2017-Dec-08 03:00N 44°07' E 028°39'0 0.0
2017-Dec-08 02:30N 44°07' E 028°39'0 0.0
2017-Dec-08 01:57N 44°07' E 028°39'0 0.0
2017-Dec-08 01:30N 44°07' E 028°39'0 0.0
2017-Dec-08 01:00N 44°07' E 028°39'0 0.0
2017-Dec-08 00:30N 44°07' E 028°39'0 0.0
2017-Dec-08 00:00N 44°07' E 028°39'0 0.0
2017-Dec-07 23:30N 44°07' E 028°39'0 0.0
2017-Dec-07 23:00N 44°07' E 028°39'0 0.0
2017-Dec-07 22:30N 44°07' E 028°39'0 0.0
2017-Dec-07 22:00N 44°07' E 028°39'0 0.0
2017-Dec-07 21:27N 44°07' E 028°39'0 0.0
2017-Dec-07 21:00N 44°07' E 028°39'0 0.0
2017-Dec-07 20:30N 44°07' E 028°39'0 0.0
2017-Dec-07 19:57N 44°07' E 028°39'0 0.0
2017-Dec-07 19:30N 44°07' E 028°39'0 0.0
2017-Dec-07 19:00N 44°07' E 028°39'0 0.0
2017-Dec-07 18:30N 44°07' E 028°39'0 0.0
2017-Dec-07 18:00N 44°07' E 028°39'0 0.0
2017-Dec-07 17:30N 44°07' E 028°39'0 0.0
2017-Dec-07 17:00N 44°07' E 028°39'0 0.0
2017-Dec-07 16:30N 44°07' E 028°39'0 0.0
2017-Dec-07 16:00N 44°07' E 028°39'0 0.0
2017-Dec-07 15:30N 44°07' E 028°39'0 0.0
2017-Dec-07 15:00N 44°07' E 028°39'0 0.0
2017-Dec-07 14:30N 44°07' E 028°39'0 0.0
2017-Dec-07 14:00N 44°07' E 028°39'0 0.0
2017-Dec-07 13:30N 44°07' E 028°39'0 0.0
2017-Dec-07 13:00N 44°07' E 028°39'0 0.0
2017-Dec-07 12:30N 44°07' E 028°39'0 0.0
2017-Dec-07 12:00N 44°07' E 028°39'0 0.0
2017-Dec-07 11:30N 44°07' E 028°39'0 0.0
2017-Dec-07 11:00N 44°07' E 028°39'0 0.0
2017-Dec-07 10:30N 44°07' E 028°39'0 0.0
2017-Dec-07 10:00N 44°07' E 028°39'0 0.0
2017-Dec-07 09:30N 44°07' E 028°39'0 0.0
2017-Dec-07 09:00N 44°07' E 028°39'0 0.0
2017-Dec-07 08:30N 44°07' E 028°39'0 0.0
2017-Dec-07 08:00N 44°07' E 028°39'0 0.0
2017-Dec-07 07:30N 44°07' E 028°39'0 0.0
2017-Dec-07 07:00N 44°07' E 028°39'0 0.0
2017-Dec-07 06:30N 44°07' E 028°39'0 0.0
2017-Dec-07 06:00N 44°07' E 028°39'0 0.0
2017-Dec-07 05:30N 44°07' E 028°39'0 0.0
2017-Dec-07 05:00N 44°07' E 028°39'0 0.0
2017-Dec-07 04:30N 44°07' E 028°39'0 0.0
2017-Dec-07 04:00N 44°07' E 028°39'0 0.0
2017-Dec-07 03:27N 44°07' E 028°39'0 0.0
2017-Dec-07 03:00N 44°07' E 028°39'0 0.0
2017-Dec-07 02:30N 44°07' E 028°39'0 0.0
2017-Dec-07 02:00N 44°07' E 028°39'0 0.0
2017-Dec-07 01:30N 44°07' E 028°39'0 0.0
2017-Dec-07 01:00N 44°07' E 028°39'0 0.0
2017-Dec-07 00:30N 44°07' E 028°39'0 0.0
2017-Dec-07 00:00N 44°07' E 028°39'0 0.0
2017-Dec-06 23:30N 44°07' E 028°39'0 0.0
2017-Dec-06 23:00N 44°07' E 028°39'0 0.0
2017-Dec-06 22:30N 44°07' E 028°39'0 0.0
2017-Dec-06 22:00N 44°07' E 028°39'0 0.0
2017-Dec-06 21:30N 44°07' E 028°39'0 0.0
2017-Dec-06 21:00N 44°07' E 028°39'  
2017-Dec-04 10:24N 44°07' E 028°39'0 0.0
2017-Dec-04 10:00N 44°07' E 028°39'0 0.0
2017-Dec-04 09:30N 44°07' E 028°39'0 0.0
2017-Dec-04 09:00N 44°07' E 028°39'0 0.0
2017-Dec-04 08:30N 44°07' E 028°39'0 0.0
2017-Dec-04 08:00N 44°07' E 028°39'0 0.0
2017-Dec-04 07:30N 44°07' E 028°39'0 0.0
2017-Dec-04 07:00N 44°07' E 028°39'0 0.0
2017-Dec-04 06:30N 44°07' E 028°39'0 0.0
2017-Dec-04 06:00N 44°07' E 028°39'0 0.0
2017-Dec-04 05:30N 44°07' E 028°39'0 0.0
2017-Dec-04 05:00N 44°07' E 028°39'0 0.0
2017-Dec-04 04:30N 44°07' E 028°39'0 0.0
2017-Dec-04 04:00N 44°07' E 028°39'0 0.0
2017-Dec-04 03:30N 44°07' E 028°39'0 0.0
2017-Dec-04 03:00N 44°07' E 028°39'0 0.0
2017-Dec-04 02:30N 44°07' E 028°39'0 0.0
2017-Dec-04 02:00N 44°07' E 028°39'0 0.0
2017-Dec-04 01:30N 44°07' E 028°39'0 0.0
2017-Dec-04 01:00N 44°07' E 028°39'0 0.0
2017-Dec-04 00:30N 44°07' E 028°39'0 0.0
2017-Dec-04 00:00N 44°07' E 028°39'0 0.0
2017-Dec-03 23:30N 44°07' E 028°39'0 0.0
2017-Dec-03 23:00N 44°07' E 028°39'0 0.0
2017-Dec-03 22:27N 44°07' E 028°39'0 0.0
2017-Dec-03 22:00N 44°07' E 028°39'0 0.0
2017-Dec-03 21:30N 44°07' E 028°39'0 0.0
2017-Dec-03 21:00N 44°07' E 028°39'0 0.0
2017-Dec-03 20:30N 44°07' E 028°39'0 0.0
2017-Dec-03 20:00N 44°07' E 028°39'0 0.0
2017-Dec-03 19:30N 44°07' E 028°39'0 0.0
2017-Dec-03 19:00N 44°07' E 028°39'0 0.0
2017-Dec-03 18:30N 44°07' E 028°39'0 0.0
2017-Dec-03 18:00N 44°07' E 028°39'0 0.0
2017-Dec-03 17:27N 44°07' E 028°39'0 0.0
2017-Dec-03 16:57N 44°07' E 028°39'0 0.0
2017-Dec-03 16:30N 44°07' E 028°39'0 0.0
2017-Dec-03 16:00N 44°07' E 028°39'0 0.0
2017-Dec-03 15:30N 44°07' E 028°39'0 0.0
2017-Dec-03 15:00N 44°07' E 028°39'0 0.0
2017-Dec-03 14:30N 44°07' E 028°39'0 0.0
2017-Dec-03 14:00N 44°07' E 028°39'0 0.0
2017-Dec-03 13:30N 44°07' E 028°39'0 0.0
2017-Dec-03 13:00N 44°07' E 028°39'0 0.0
2017-Dec-03 12:30N 44°07' E 028°39'0 0.0
2017-Dec-03 12:00N 44°07' E 028°39'0 0.0
2017-Dec-03 11:30N 44°07' E 028°39'0 0.0
2017-Dec-03 11:00N 44°07' E 028°39'0 0.0
2017-Dec-03 10:30N 44°07' E 028°39'0 0.0
2017-Dec-03 10:00N 44°07' E 028°39'0 0.0
2017-Dec-03 09:30N 44°07' E 028°39'0 0.0
2017-Dec-03 09:00N 44°07' E 028°39'0 0.0
2017-Dec-03 08:30N 44°07' E 028°39'0 0.0
2017-Dec-03 08:00N 44°07' E 028°39'0 0.0
2017-Dec-03 07:27N 44°07' E 028°39'0 0.0
2017-Dec-03 07:00N 44°07' E 028°39'0 0.0
2017-Dec-03 06:30N 44°07' E 028°39'0 0.0
2017-Dec-03 06:00N 44°07' E 028°39'0 0.0
2017-Dec-03 05:30N 44°07' E 028°39'0 0.0
2017-Dec-03 05:00N 44°07' E 028°39'0 0.0
2017-Dec-03 04:30N 44°07' E 028°39'0 0.0
2017-Dec-03 04:00N 44°07' E 028°39'0 0.0
2017-Dec-03 03:30N 44°07' E 028°39'0 0.0
2017-Dec-03 03:00N 44°07' E 028°39'0 0.0
2017-Dec-03 02:30N 44°07' E 028°39'0 0.0
2017-Dec-03 02:00N 44°07' E 028°39'0 0.0
2017-Dec-03 01:30N 44°07' E 028°39'0 0.0
2017-Dec-03 01:00N 44°07' E 028°39'0 0.0
2017-Dec-03 00:30N 44°07' E 028°39'0 0.0
2017-Dec-03 00:00N 44°07' E 028°39'0 0.0
2017-Dec-02 23:30N 44°07' E 028°39'0 0.0
2017-Dec-02 23:00N 44°07' E 028°39'0 0.0
2017-Dec-02 22:30N 44°07' E 028°39'0 0.0
2017-Dec-02 22:00N 44°07' E 028°39'0 0.0
2017-Dec-02 21:30N 44°07' E 028°39'0 0.0
2017-Dec-02 21:00N 44°07' E 028°39'0 0.0
2017-Dec-02 20:30N 44°07' E 028°39'0 0.0
2017-Dec-02 20:00N 44°07' E 028°39'0 0.0
2017-Dec-02 19:30N 44°07' E 028°39'0 0.0
2017-Dec-02 18:57N 44°07' E 028°39'0 0.0
2017-Dec-02 18:27N 44°07' E 028°39'0 0.0
2017-Dec-02 17:57N 44°07' E 028°39'0 0.0
2017-Dec-02 17:30N 44°07' E 028°39'0 0.0
2017-Dec-02 17:00N 44°07' E 028°39'0 0.0
2017-Dec-02 16:30N 44°07' E 028°39'0 0.0
2017-Dec-02 16:00N 44°07' E 028°39'0 0.0
2017-Dec-02 15:27N 44°07' E 028°39'0 0.0
2017-Dec-02 15:00N 44°07' E 028°39'0 0.0
2017-Dec-02 14:30N 44°07' E 028°39'0 0.0
2017-Dec-02 14:00N 44°07' E 028°39'0 0.0
2017-Dec-02 13:30N 44°07' E 028°39'0 0.0
2017-Dec-02 13:00N 44°07' E 028°39'0 0.0
2017-Dec-02 12:30N 44°07' E 028°39'0 0.0
2017-Dec-02 12:00N 44°07' E 028°39'0 0.0
2017-Dec-02 11:30N 44°07' E 028°39'0 0.0
2017-Dec-02 10:51N 44°07' E 028°39'0 0.0
2017-Dec-02 10:30N 44°07' E 028°39'0 0.0
2017-Dec-02 10:00N 44°07' E 028°39'0 0.0
2017-Dec-02 09:30N 44°07' E 028°39'0 0.0
2017-Dec-02 09:00N 44°07' E 028°39'0 0.0
2017-Dec-02 08:30N 44°07' E 028°39'0 0.0
2017-Dec-02 08:00N 44°07' E 028°39'0 0.0
2017-Dec-02 07:27N 44°07' E 028°39'0 0.0
2017-Dec-02 07:00N 44°07' E 028°39'0 0.0
2017-Dec-02 06:30N 44°07' E 028°39'0 0.0
2017-Dec-02 05:57N 44°07' E 028°39'0 0.0
2017-Dec-02 05:30N 44°07' E 028°39'0 0.0
2017-Dec-02 05:00N 44°07' E 028°39'0 0.0
2017-Dec-02 04:30N 44°07' E 028°39'0 0.0
2017-Dec-02 04:00N 44°07' E 028°39'0 0.0
2017-Dec-02 03:30N 44°07' E 028°39'0 0.0
2017-Dec-02 02:57N 44°07' E 028°39'0 0.0
2017-Dec-02 02:30N 44°07' E 028°39'0 0.0
2017-Dec-02 02:00N 44°07' E 028°39'0 0.0
2017-Dec-02 01:30N 44°07' E 028°39'0 0.0
2017-Dec-02 01:00N 44°07' E 028°39'0 0.0
2017-Dec-02 00:30N 44°07' E 028°39'0 0.0
2017-Dec-02 00:00N 44°07' E 028°39'0 0.0
2017-Dec-01 23:30N 44°07' E 028°39'0 0.0
2017-Dec-01 23:00N 44°07' E 028°39'0 0.0
2017-Dec-01 22:30N 44°07' E 028°39'0 0.0
2017-Dec-01 22:00N 44°07' E 028°39'0 0.0
2017-Dec-01 21:30N 44°07' E 028°39'0 0.0
2017-Dec-01 21:00N 44°07' E 028°39'0 0.0
2017-Dec-01 20:30N 44°07' E 028°39'0 0.0
2017-Dec-01 20:00N 44°07' E 028°39'0 0.0
2017-Dec-01 19:30N 44°07' E 028°39'0 0.0
2017-Dec-01 19:00N 44°07' E 028°39'0 0.0
2017-Dec-01 18:30N 44°07' E 028°39'0 0.0
2017-Dec-01 18:00N 44°07' E 028°39'0 0.0
2017-Dec-01 17:27N 44°07' E 028°39'0 0.0
2017-Dec-01 17:00N 44°07' E 028°39'0 0.0
2017-Dec-01 16:30N 44°07' E 028°39'0 0.0
2017-Dec-01 16:00N 44°07' E 028°39'0 0.0
2017-Dec-01 15:30N 44°07' E 028°39'0 0.0
2017-Dec-01 15:00N 44°07' E 028°39'0 0.0
2017-Dec-01 14:30N 44°07' E 028°39'0 0.0
2017-Dec-01 14:00N 44°07' E 028°39'0 0.0
2017-Dec-01 13:30N 44°07' E 028°39'0 0.0
2017-Dec-01 13:00N 44°07' E 028°39'0 0.0
2017-Dec-01 12:30N 44°07' E 028°39'0 0.0
2017-Dec-01 12:00N 44°07' E 028°39'0 0.0
2017-Dec-01 11:30N 44°07' E 028°39'0 0.0
2017-Dec-01 11:00N 44°07' E 028°39'  
Track history (hours):
 
Tides and Currents Weather Stations Pressure Air Temp Water Temp Dewpoint Dewpoint Depression Visibility Wind Speed Wind Dir Waves Ship Positions

Metaltrade 3

Last reported at 2017-Dec-11 10:51 UTC. Time now 2017-Dec-16 19:04 UTC.
Position N 44°18' E 028°03'.

Length 95 m; draft 1.3 m.

Type: Ship. MMSI: 264160431.

Date/timePositionNaut miles runAvg speedWind from/ knotsBaromVisibWave heightAir tempDewpointWater temp
2017-Dec-11 10:51N 44°18' E 028°03'2 5.3
2017-Dec-11 10:30N 44°17' E 028°05'3 5.5
2017-Dec-11 10:00N 44°16' E 028°08'3 5.7
2017-Dec-11 09:31N 44°16' E 028°12'3 5.7
2017-Dec-11 09:00N 44°15' E 028°16'3 5.7
2017-Dec-11 08:30N 44°15' E 028°20'3 5.6
2017-Dec-11 08:01N 44°13' E 028°23'3 5.5
2017-Dec-11 07:31N 44°11' E 028°24'7 5.1
2017-Dec-11 06:13N 44°06' E 028°31'1 5.6
2017-Dec-11 06:00N 44°06' E 028°32'3 5.6
2017-Dec-11 05:31N 44°06' E 028°36'1 1.2
2017-Dec-11 05:00N 44°06' E 028°37'1 2.2
2017-Dec-11 04:31N 44°06' E 028°39'1 2.5
2017-Dec-11 04:00N 44°07' E 028°39'0 0.0
2017-Dec-11 03:30N 44°07' E 028°39'0 0.0
2017-Dec-11 03:00N 44°07' E 028°39'0 0.0
2017-Dec-11 02:30N 44°07' E 028°39'0 0.0
2017-Dec-11 02:00N 44°07' E 028°39'0 0.0
2017-Dec-11 01:30N 44°07' E 028°39'0 0.0
2017-Dec-11 01:00N 44°07' E 028°39'0 0.0
2017-Dec-11 00:30N 44°07' E 028°39'0 0.0
2017-Dec-11 00:00N 44°07' E 028°39'0 0.0
2017-Dec-10 23:30N 44°07' E 028°39'0 0.0
2017-Dec-10 23:00N 44°07' E 028°39'0 0.0
2017-Dec-10 22:30N 44°07' E 028°39'0 0.0
2017-Dec-10 22:00N 44°07' E 028°39'0 0.0
2017-Dec-10 21:30N 44°07' E 028°39'0 0.0
2017-Dec-10 21:00N 44°07' E 028°39'0 0.0
2017-Dec-10 20:30N 44°07' E 028°39'0 0.0
2017-Dec-10 20:00N 44°07' E 028°39'0 0.0
2017-Dec-10 19:30N 44°07' E 028°39'0 0.0
2017-Dec-10 19:00N 44°07' E 028°39'0 0.0
2017-Dec-10 18:30N 44°07' E 028°39'0 0.0
2017-Dec-10 18:00N 44°07' E 028°39'0 0.0
2017-Dec-10 17:30N 44°07' E 028°39'0 0.0
2017-Dec-10 17:00N 44°07' E 028°39'0 0.0
2017-Dec-10 16:30N 44°07' E 028°39'0 0.0
2017-Dec-10 16:00N 44°07' E 028°39'0 0.0
2017-Dec-10 15:30N 44°07' E 028°39'0 0.0
2017-Dec-10 15:00N 44°07' E 028°39'0 0.0
2017-Dec-10 14:30N 44°07' E 028°39'0 0.0
2017-Dec-10 14:00N 44°07' E 028°39'0 0.0
2017-Dec-10 13:30N 44°07' E 028°39'0 0.0
2017-Dec-10 13:00N 44°07' E 028°39'0 0.0
2017-Dec-10 12:30N 44°07' E 028°39'0 0.0
2017-Dec-10 12:00N 44°07' E 028°39'0 0.0
2017-Dec-10 11:30N 44°07' E 028°39'0 0.0
2017-Dec-10 11:00N 44°07' E 028°39'0 0.0
2017-Dec-10 10:30N 44°07' E 028°39'0 0.0
2017-Dec-10 10:00N 44°07' E 028°39'0 0.0
2017-Dec-10 09:30N 44°07' E 028°39'0 0.0
2017-Dec-10 09:00N 44°07' E 028°39'0 0.0
2017-Dec-10 08:30N 44°07' E 028°39'0 0.0
2017-Dec-10 08:00N 44°07' E 028°39'0 0.0
2017-Dec-10 07:30N 44°07' E 028°39'0 0.0
2017-Dec-10 07:00N 44°07' E 028°39'0 0.0
2017-Dec-10 06:30N 44°07' E 028°39'0 0.0
2017-Dec-10 06:00N 44°07' E 028°39'0 0.0
2017-Dec-10 05:30N 44°07' E 028°39'0 0.1
2017-Dec-10 05:00N 44°08' E 028°39'1 2.6
2017-Dec-10 04:31N 44°09' E 028°40'1 1.2
2017-Dec-10 04:00N 44°09' E 028°39'0 0.0
2017-Dec-10 03:30N 44°09' E 028°39'0 0.0
2017-Dec-10 03:00N 44°09' E 028°39'0 0.0
2017-Dec-10 02:30N 44°09' E 028°39'0 0.0
2017-Dec-10 01:57N 44°09' E 028°39'0 0.0
2017-Dec-10 01:27N 44°09' E 028°39'0 0.0
2017-Dec-10 01:00N 44°09' E 028°39'0 0.0
2017-Dec-10 00:27N 44°09' E 028°39'0 0.0
2017-Dec-10 00:00N 44°09' E 028°39'0 0.0
2017-Dec-09 23:30N 44°09' E 028°39'0 0.0
2017-Dec-09 23:00N 44°09' E 028°39'0 0.0
2017-Dec-09 22:27N 44°09' E 028°39'0 0.0
2017-Dec-09 22:00N 44°09' E 028°39'0 0.0
2017-Dec-09 21:30N 44°09' E 028°39'0 0.0
2017-Dec-09 21:00N 44°09' E 028°39'0 0.0
2017-Dec-09 20:30N 44°09' E 028°39'0 0.0
2017-Dec-09 20:00N 44°09' E 028°39'0 0.0
2017-Dec-09 19:30N 44°09' E 028°39'0 0.0
2017-Dec-09 18:57N 44°09' E 028°39'0 0.0
2017-Dec-09 18:30N 44°09' E 028°39'0 0.0
2017-Dec-09 18:00N 44°09' E 028°39'0 0.0
2017-Dec-09 17:25N 44°09' E 028°39'0 0.0
2017-Dec-09 16:55N 44°09' E 028°39'0 0.0
2017-Dec-09 16:25N 44°09' E 028°39'0 0.0
2017-Dec-09 15:58N 44°09' E 028°39'0 0.1
2017-Dec-09 15:28N 44°09' E 028°39'0 0.0
2017-Dec-09 14:58N 44°09' E 028°39'0 0.0
2017-Dec-09 14:28N 44°09' E 028°39'0 0.0
2017-Dec-09 13:58N 44°09' E 028°39'0 0.0
2017-Dec-09 13:28N 44°09' E 028°39'0 0.0
2017-Dec-09 12:58N 44°09' E 028°39'0 0.0
2017-Dec-09 12:28N 44°09' E 028°39'0 0.0
2017-Dec-09 11:58N 44°09' E 028°39'0 0.0
2017-Dec-09 11:28N 44°09' E 028°39'0 0.0
2017-Dec-09 10:58N 44°09' E 028°39'0 0.0
2017-Dec-09 10:28N 44°09' E 028°39'0 0.1
2017-Dec-09 09:55N 44°09' E 028°39'0 0.0
2017-Dec-09 09:28N 44°09' E 028°39'0 0.0
2017-Dec-09 08:58N 44°09' E 028°39'0 0.0
2017-Dec-09 08:28N 44°09' E 028°39'0 0.0
2017-Dec-09 07:58N 44°09' E 028°39'1 1.5
2017-Dec-09 07:30N 44°09' E 028°40'2 4.4
2017-Dec-09 07:00N 44°07' E 028°39'0 0.3
2017-Dec-09 06:30N 44°07' E 028°39'0 0.0
2017-Dec-09 05:57N 44°07' E 028°39'0 0.0
2017-Dec-09 05:30N 44°07' E 028°39'0 0.0
2017-Dec-09 05:00N 44°07' E 028°39'0 0.0
2017-Dec-09 04:30N 44°07' E 028°39'0 0.0
2017-Dec-09 04:00N 44°07' E 028°39'0 0.0
2017-Dec-09 03:30N 44°07' E 028°39'0 0.0
2017-Dec-09 03:00N 44°07' E 028°39'0 0.0
2017-Dec-09 02:30N 44°07' E 028°39'0 0.0
2017-Dec-09 02:00N 44°07' E 028°39'0 0.0
2017-Dec-09 01:30N 44°07' E 028°39'0 0.0
2017-Dec-09 01:00N 44°07' E 028°39'0 0.0
2017-Dec-09 00:30N 44°07' E 028°39'0 0.0
2017-Dec-09 00:00N 44°07' E 028°39'0 0.0
2017-Dec-08 23:27N 44°07' E 028°39'0 0.0
2017-Dec-08 23:00N 44°07' E 028°39'0 0.0
2017-Dec-08 22:30N 44°07' E 028°39'0 0.0
2017-Dec-08 22:00N 44°07' E 028°39'0 0.0
2017-Dec-08 21:30N 44°07' E 028°39'0 0.0
2017-Dec-08 21:00N 44°07' E 028°39'0 0.0
2017-Dec-08 20:30N 44°07' E 028°39'0 0.0
2017-Dec-08 20:00N 44°07' E 028°39'0 0.0
2017-Dec-08 19:30N 44°07' E 028°39'0 0.0
2017-Dec-08 19:00N 44°07' E 028°39'0 0.0
2017-Dec-08 18:30N 44°07' E 028°39'0 0.0
2017-Dec-08 18:00N 44°07' E 028°39'0 0.0
2017-Dec-08 17:30N 44°07' E 028°39'0 0.0
2017-Dec-08 16:54N 44°07' E 028°39'0 0.0
2017-Dec-08 16:30N 44°07' E 028°39'0 0.0
2017-Dec-08 16:00N 44°07' E 028°39'0 0.0
2017-Dec-08 15:30N 44°07' E 028°39'0 0.0
2017-Dec-08 15:00N 44°07' E 028°39'0 0.0
2017-Dec-08 14:30N 44°07' E 028°39'0 0.0
2017-Dec-08 14:00N 44°07' E 028°39'0 0.0
2017-Dec-08 13:30N 44°07' E 028°39'0 0.0
2017-Dec-08 13:00N 44°07' E 028°39'0 0.0
2017-Dec-08 12:30N 44°07' E 028°39'0 0.0
2017-Dec-08 12:00N 44°07' E 028°39'0 0.0
2017-Dec-08 11:30N 44°07' E 028°39'0 0.0
2017-Dec-08 11:00N 44°07' E 028°39'0 0.0
2017-Dec-08 10:30N 44°07' E 028°39'0 0.0
2017-Dec-08 10:00N 44°07' E 028°39'0 0.0
2017-Dec-08 09:30N 44°07' E 028°39'0 0.0
2017-Dec-08 09:00N 44°07' E 028°39'0 0.0
2017-Dec-08 08:30N 44°07' E 028°39'0 0.0
2017-Dec-08 08:00N 44°07' E 028°39'0 0.0
2017-Dec-08 07:30N 44°07' E 028°39'0 0.0
2017-Dec-08 07:00N 44°07' E 028°39'0 0.0
2017-Dec-08 06:30N 44°07' E 028°39'0 0.0
2017-Dec-08 06:00N 44°07' E 028°39'0 0.0
2017-Dec-08 05:30N 44°07' E 028°39'0 0.0
2017-Dec-08 05:00N 44°07' E 028°39'0 0.0
2017-Dec-08 04:30N 44°07' E 028°39'0 0.0
2017-Dec-08 04:00N 44°07' E 028°39'0 0.0
2017-Dec-08 03:30N 44°07' E 028°39'0 0.0
2017-Dec-08 03:00N 44°07' E 028°39'0 0.0
2017-Dec-08 02:30N 44°07' E 028°39'0 0.0
2017-Dec-08 01:57N 44°07' E 028°39'0 0.0
2017-Dec-08 01:30N 44°07' E 028°39'0 0.0
2017-Dec-08 01:00N 44°07' E 028°39'0 0.0
2017-Dec-08 00:30N 44°07' E 028°39'0 0.0
2017-Dec-08 00:00N 44°07' E 028°39'0 0.0
2017-Dec-07 23:30N 44°07' E 028°39'0 0.0
2017-Dec-07 23:00N 44°07' E 028°39'0 0.0
2017-Dec-07 22:30N 44°07' E 028°39'0 0.0
2017-Dec-07 22:00N 44°07' E 028°39'0 0.0
2017-Dec-07 21:27N 44°07' E 028°39'0 0.0
2017-Dec-07 21:00N 44°07' E 028°39'0 0.0
2017-Dec-07 20:30N 44°07' E 028°39'0 0.0
2017-Dec-07 19:57N 44°07' E 028°39'0 0.0
2017-Dec-07 19:30N 44°07' E 028°39'0 0.0
2017-Dec-07 19:00N 44°07' E 028°39'0 0.0
2017-Dec-07 18:30N 44°07' E 028°39'0 0.0
2017-Dec-07 18:00N 44°07' E 028°39'0 0.0
2017-Dec-07 17:30N 44°07' E 028°39'0 0.0
2017-Dec-07 17:00N 44°07' E 028°39'0 0.0
2017-Dec-07 16:30N 44°07' E 028°39'0 0.0
2017-Dec-07 16:00N 44°07' E 028°39'0 0.0
2017-Dec-07 15:30N 44°07' E 028°39'0 0.0
2017-Dec-07 15:00N 44°07' E 028°39'0 0.0
2017-Dec-07 14:30N 44°07' E 028°39'0 0.0
2017-Dec-07 14:00N 44°07' E 028°39'0 0.0
2017-Dec-07 13:30N 44°07' E 028°39'0 0.0
2017-Dec-07 13:00N 44°07' E 028°39'0 0.0
2017-Dec-07 12:30N 44°07' E 028°39'0 0.0
2017-Dec-07 12:00N 44°07' E 028°39'0 0.0
2017-Dec-07 11:30N 44°07' E 028°39'0 0.0
2017-Dec-07 11:00N 44°07' E 028°39'0 0.0
2017-Dec-07 10:30N 44°07' E 028°39'0 0.0
2017-Dec-07 10:00N 44°07' E 028°39'0 0.0
2017-Dec-07 09:30N 44°07' E 028°39'0 0.0
2017-Dec-07 09:00N 44°07' E 028°39'0 0.0
2017-Dec-07 08:30N 44°07' E 028°39'0 0.0
2017-Dec-07 08:00N 44°07' E 028°39'0 0.0
2017-Dec-07 07:30N 44°07' E 028°39'0 0.0
2017-Dec-07 07:00N 44°07' E 028°39'0 0.0
2017-Dec-07 06:30N 44°07' E 028°39'0 0.0
2017-Dec-07 06:00N 44°07' E 028°39'0 0.0
2017-Dec-07 05:30N 44°07' E 028°39'0 0.0
2017-Dec-07 05:00N 44°07' E 028°39'0 0.0
2017-Dec-07 04:30N 44°07' E 028°39'0 0.0
2017-Dec-07 04:00N 44°07' E 028°39'0 0.0
2017-Dec-07 03:27N 44°07' E 028°39'0 0.0
2017-Dec-07 03:00N 44°07' E 028°39'0 0.0
2017-Dec-07 02:30N 44°07' E 028°39'0 0.0
2017-Dec-07 02:00N 44°07' E 028°39'0 0.0
2017-Dec-07 01:30N 44°07' E 028°39'0 0.0
2017-Dec-07 01:00N 44°07' E 028°39'0 0.0
2017-Dec-07 00:30N 44°07' E 028°39'0 0.0
2017-Dec-07 00:00N 44°07' E 028°39'0 0.0
2017-Dec-06 23:30N 44°07' E 028°39'0 0.0
2017-Dec-06 23:00N 44°07' E 028°39'0 0.0
2017-Dec-06 22:30N 44°07' E 028°39'0 0.0
2017-Dec-06 22:00N 44°07' E 028°39'0 0.0
2017-Dec-06 21:30N 44°07' E 028°39'0 0.0
2017-Dec-06 21:00N 44°07' E 028°39'  
2017-Dec-04 10:24N 44°07' E 028°39'0 0.0
2017-Dec-04 10:00N 44°07' E 028°39'0 0.0
2017-Dec-04 09:30N 44°07' E 028°39'0 0.0
2017-Dec-04 09:00N 44°07' E 028°39'0 0.0
2017-Dec-04 08:30N 44°07' E 028°39'0 0.0
2017-Dec-04 08:00N 44°07' E 028°39'0 0.0
2017-Dec-04 07:30N 44°07' E 028°39'0 0.0
2017-Dec-04 07:00N 44°07' E 028°39'0 0.0
2017-Dec-04 06:30N 44°07' E 028°39'0 0.0
2017-Dec-04 06:00N 44°07' E 028°39'0 0.0
2017-Dec-04 05:30N 44°07' E 028°39'0 0.0
2017-Dec-04 05:00N 44°07' E 028°39'0 0.0
2017-Dec-04 04:30N 44°07' E 028°39'0 0.0
2017-Dec-04 04:00N 44°07' E 028°39'0 0.0
2017-Dec-04 03:30N 44°07' E 028°39'0 0.0
2017-Dec-04 03:00N 44°07' E 028°39'0 0.0
2017-Dec-04 02:30N 44°07' E 028°39'0 0.0
2017-Dec-04 02:00N 44°07' E 028°39'0 0.0
2017-Dec-04 01:30N 44°07' E 028°39'0 0.0
2017-Dec-04 01:00N 44°07' E 028°39'0 0.0
2017-Dec-04 00:30N 44°07' E 028°39'0 0.0
2017-Dec-04 00:00N 44°07' E 028°39'0 0.0
2017-Dec-03 23:30N 44°07' E 028°39'0 0.0
2017-Dec-03 23:00N 44°07' E 028°39'0 0.0
2017-Dec-03 22:27N 44°07' E 028°39'0 0.0
2017-Dec-03 22:00N 44°07' E 028°39'0 0.0
2017-Dec-03 21:30N 44°07' E 028°39'0 0.0
2017-Dec-03 21:00N 44°07' E 028°39'0 0.0
2017-Dec-03 20:30N 44°07' E 028°39'0 0.0
2017-Dec-03 20:00N 44°07' E 028°39'0 0.0
2017-Dec-03 19:30N 44°07' E 028°39'0 0.0
2017-Dec-03 19:00N 44°07' E 028°39'0 0.0
2017-Dec-03 18:30N 44°07' E 028°39'0 0.0
2017-Dec-03 18:00N 44°07' E 028°39'0 0.0
2017-Dec-03 17:27N 44°07' E 028°39'0 0.0
2017-Dec-03 16:57N 44°07' E 028°39'0 0.0
2017-Dec-03 16:30N 44°07' E 028°39'0 0.0
2017-Dec-03 16:00N 44°07' E 028°39'0 0.0
2017-Dec-03 15:30N 44°07' E 028°39'0 0.0
2017-Dec-03 15:00N 44°07' E 028°39'0 0.0
2017-Dec-03 14:30N 44°07' E 028°39'0 0.0
2017-Dec-03 14:00N 44°07' E 028°39'0 0.0
2017-Dec-03 13:30N 44°07' E 028°39'0 0.0
2017-Dec-03 13:00N 44°07' E 028°39'0 0.0
2017-Dec-03 12:30N 44°07' E 028°39'0 0.0
2017-Dec-03 12:00N 44°07' E 028°39'0 0.0
2017-Dec-03 11:30N 44°07' E 028°39'0 0.0
2017-Dec-03 11:00N 44°07' E 028°39'0 0.0
2017-Dec-03 10:30N 44°07' E 028°39'0 0.0
2017-Dec-03 10:00N 44°07' E 028°39'0 0.0
2017-Dec-03 09:30N 44°07' E 028°39'0 0.0
2017-Dec-03 09:00N 44°07' E 028°39'0 0.0
2017-Dec-03 08:30N 44°07' E 028°39'0 0.0
2017-Dec-03 08:00N 44°07' E 028°39'0 0.0
2017-Dec-03 07:27N 44°07' E 028°39'0 0.0
2017-Dec-03 07:00N 44°07' E 028°39'0 0.0
2017-Dec-03 06:30N 44°07' E 028°39'0 0.0
2017-Dec-03 06:00N 44°07' E 028°39'0 0.0
2017-Dec-03 05:30N 44°07' E 028°39'0 0.0
2017-Dec-03 05:00N 44°07' E 028°39'0 0.0
2017-Dec-03 04:30N 44°07' E 028°39'0 0.0
2017-Dec-03 04:00N 44°07' E 028°39'0 0.0
2017-Dec-03 03:30N 44°07' E 028°39'0 0.0
2017-Dec-03 03:00N 44°07' E 028°39'0 0.0
2017-Dec-03 02:30N 44°07' E 028°39'0 0.0
2017-Dec-03 02:00N 44°07' E 028°39'0 0.0
2017-Dec-03 01:30N 44°07' E 028°39'0 0.0
2017-Dec-03 01:00N 44°07' E 028°39'0 0.0
2017-Dec-03 00:30N 44°07' E 028°39'0 0.0
2017-Dec-03 00:00N 44°07' E 028°39'0 0.0
2017-Dec-02 23:30N 44°07' E 028°39'0 0.0
2017-Dec-02 23:00N 44°07' E 028°39'0 0.0
2017-Dec-02 22:30N 44°07' E 028°39'0 0.0
2017-Dec-02 22:00N 44°07' E 028°39'0 0.0
2017-Dec-02 21:30N 44°07' E 028°39'0 0.0
2017-Dec-02 21:00N 44°07' E 028°39'0 0.0
2017-Dec-02 20:30N 44°07' E 028°39'0 0.0
2017-Dec-02 20:00N 44°07' E 028°39'0 0.0
2017-Dec-02 19:30N 44°07' E 028°39'0 0.0
2017-Dec-02 18:57N 44°07' E 028°39'0 0.0
2017-Dec-02 18:27N 44°07' E 028°39'0 0.0
2017-Dec-02 17:57N 44°07' E 028°39'0 0.0
2017-Dec-02 17:30N 44°07' E 028°39'0 0.0
2017-Dec-02 17:00N 44°07' E 028°39'0 0.0
2017-Dec-02 16:30N 44°07' E 028°39'0 0.0
2017-Dec-02 16:00N 44°07' E 028°39'0 0.0
2017-Dec-02 15:27N 44°07' E 028°39'0 0.0
2017-Dec-02 15:00N 44°07' E 028°39'0 0.0
2017-Dec-02 14:30N 44°07' E 028°39'0 0.0
2017-Dec-02 14:00N 44°07' E 028°39'0 0.0
2017-Dec-02 13:30N 44°07' E 028°39'0 0.0
2017-Dec-02 13:00N 44°07' E 028°39'0 0.0
2017-Dec-02 12:30N 44°07' E 028°39'0 0.0
2017-Dec-02 12:00N 44°07' E 028°39'0 0.0
2017-Dec-02 11:30N 44°07' E 028°39'0 0.0
2017-Dec-02 10:51N 44°07' E 028°39'0 0.0
2017-Dec-02 10:30N 44°07' E 028°39'0 0.0
2017-Dec-02 10:00N 44°07' E 028°39'0 0.0
2017-Dec-02 09:30N 44°07' E 028°39'0 0.0
2017-Dec-02 09:00N 44°07' E 028°39'0 0.0
2017-Dec-02 08:30N 44°07' E 028°39'0 0.0
2017-Dec-02 08:00N 44°07' E 028°39'0 0.0
2017-Dec-02 07:27N 44°07' E 028°39'0 0.0
2017-Dec-02 07:00N 44°07' E 028°39'0 0.0
2017-Dec-02 06:30N 44°07' E 028°39'0 0.0
2017-Dec-02 05:57N 44°07' E 028°39'0 0.0
2017-Dec-02 05:30N 44°07' E 028°39'0 0.0
2017-Dec-02 05:00N 44°07' E 028°39'0 0.0
2017-Dec-02 04:30N 44°07' E 028°39'0 0.0
2017-Dec-02 04:00N 44°07' E 028°39'0 0.0
2017-Dec-02 03:30N 44°07' E 028°39'0 0.0
2017-Dec-02 02:57N 44°07' E 028°39'0 0.0
2017-Dec-02 02:30N 44°07' E 028°39'0 0.0
2017-Dec-02 02:00N 44°07' E 028°39'0 0.0
2017-Dec-02 01:30N 44°07' E 028°39'0 0.0
2017-Dec-02 01:00N 44°07' E 028°39'0 0.0
2017-Dec-02 00:30N 44°07' E 028°39'0 0.0
2017-Dec-02 00:00N 44°07' E 028°39'0 0.0
2017-Dec-01 23:30N 44°07' E 028°39'0 0.0
2017-Dec-01 23:00N 44°07' E 028°39'0 0.0
2017-Dec-01 22:30N 44°07' E 028°39'0 0.0
2017-Dec-01 22:00N 44°07' E 028°39'0 0.0
2017-Dec-01 21:30N 44°07' E 028°39'0 0.0
2017-Dec-01 21:00N 44°07' E 028°39'0 0.0
2017-Dec-01 20:30N 44°07' E 028°39'0 0.0
2017-Dec-01 20:00N 44°07' E 028°39'0 0.0
2017-Dec-01 19:30N 44°07' E 028°39'0 0.0
2017-Dec-01 19:00N 44°07' E 028°39'0 0.0
2017-Dec-01 18:30N 44°07' E 028°39'0 0.0
2017-Dec-01 18:00N 44°07' E 028°39'0 0.0
2017-Dec-01 17:27N 44°07' E 028°39'0 0.0
2017-Dec-01 17:00N 44°07' E 028°39'0 0.0
2017-Dec-01 16:30N 44°07' E 028°39'0 0.0
2017-Dec-01 16:00N 44°07' E 028°39'0 0.0
2017-Dec-01 15:30N 44°07' E 028°39'0 0.0
2017-Dec-01 15:00N 44°07' E 028°39'0 0.0
2017-Dec-01 14:30N 44°07' E 028°39'0 0.0
2017-Dec-01 14:00N 44°07' E 028°39'0 0.0
2017-Dec-01 13:30N 44°07' E 028°39'0 0.0
2017-Dec-01 13:00N 44°07' E 028°39'0 0.0
2017-Dec-01 12:30N 44°07' E 028°39'0 0.0
2017-Dec-01 12:00N 44°07' E 028°39'0 0.0
2017-Dec-01 11:30N 44°07' E 028°39'0 0.0
2017-Dec-01 11:00N 44°07' E 028°39'  

Dump ship's entire track history